sensor_id;sensor_type;location;lat;lon;timestamp;P1;P2;P0
72854;PMS7003;60991;51.278;22.550;2023-07-16T00:00:05;16.50;16.00;12.50
72854;PMS7003;60991;51.278;22.550;2023-07-16T00:01:35;19.50;19.50;13.00
72854;PMS7003;60991;51.278;22.550;2023-07-16T00:03:06;18.25;18.25;13.00
72854;PMS7003;60991;51.278;22.550;2023-07-16T00:04:36;21.75;20.75;14.50
72854;PMS7003;60991;51.278;22.550;2023-07-16T00:06:06;15.00;14.50;11.75
72854;PMS7003;60991;51.278;22.550;2023-07-16T00:07:36;18.25;17.25;13.75
72854;PMS7003;60991;51.278;22.550;2023-07-16T00:09:06;17.25;16.75;10.50
72854;PMS7003;60991;51.278;22.550;2023-07-16T00:10:37;19.75;19.75;15.25
72854;PMS7003;60991;51.278;22.550;2023-07-16T00:12:07;20.25;18.75;15.25
72854;PMS7003;60991;51.278;22.550;2023-07-16T00:13:38;21.25;18.50;14.00
72854;PMS7003;60991;51.278;22.550;2023-07-16T00:15:08;17.75;16.00;12.50
72854;PMS7003;60991;51.278;22.550;2023-07-16T00:16:38;16.00;16.00;11.25
72854;PMS7003;60991;51.278;22.550;2023-07-16T00:18:09;15.75;15.25;11.25
72854;PMS7003;60991;51.278;22.550;2023-07-16T00:19:39;13.50;12.50;8.50
72854;PMS7003;60991;51.278;22.550;2023-07-16T00:21:09;16.00;15.50;12.25
72854;PMS7003;60991;51.278;22.550;2023-07-16T00:22:39;15.75;14.75;10.50
72854;PMS7003;60991;51.278;22.550;2023-07-16T00:24:09;16.00;14.50;10.75
72854;PMS7003;60991;51.278;22.550;2023-07-16T00:25:40;17.50;16.00;12.75
72854;PMS7003;60991;51.278;22.550;2023-07-16T00:27:10;16.75;16.25;12.00
72854;PMS7003;60991;51.278;22.550;2023-07-16T00:28:40;19.00;18.00;12.25
72854;PMS7003;60991;51.278;22.550;2023-07-16T00:30:10;21.50;20.50;13.75
72854;PMS7003;60991;51.278;22.550;2023-07-16T00:31:41;20.25;20.00;14.75
72854;PMS7003;60991;51.278;22.550;2023-07-16T00:33:11;17.25;17.25;12.00
72854;PMS7003;60991;51.278;22.550;2023-07-16T00:34:41;16.00;15.00;13.00
72854;PMS7003;60991;51.278;22.550;2023-07-16T00:36:11;13.00;13.00;9.25
72854;PMS7003;60991;51.278;22.550;2023-07-16T00:37:41;18.25;18.25;12.50
72854;PMS7003;60991;51.278;22.550;2023-07-16T00:39:12;19.50;18.25;14.00
72854;PMS7003;60991;51.278;22.550;2023-07-16T00:40:42;21.25;17.50;13.00
72854;PMS7003;60991;51.278;22.550;2023-07-16T00:42:12;12.25;12.00;9.50
72854;PMS7003;60991;51.278;22.550;2023-07-16T00:43:42;18.50;18.50;14.00
72854;PMS7003;60991;51.278;22.550;2023-07-16T00:45:12;17.50;17.50;13.00
72854;PMS7003;60991;51.278;22.550;2023-07-16T00:46:43;17.50;17.50;14.00
72854;PMS7003;60991;51.278;22.550;2023-07-16T00:48:13;13.75;13.75;9.50
72854;PMS7003;60991;51.278;22.550;2023-07-16T00:49:44;19.75;18.75;12.75
72854;PMS7003;60991;51.278;22.550;2023-07-16T00:51:15;19.50;18.25;14.25
72854;PMS7003;60991;51.278;22.550;2023-07-16T00:52:47;16.00;15.25;12.00
72854;PMS7003;60991;51.278;22.550;2023-07-16T00:54:17;20.75;19.00;13.75
72854;PMS7003;60991;51.278;22.550;2023-07-16T00:55:47;17.50;17.50;13.00
72854;PMS7003;60991;51.278;22.550;2023-07-16T00:57:17;20.25;17.00;13.25
72854;PMS7003;60991;51.278;22.550;2023-07-16T00:58:47;16.25;16.00;12.25
72854;PMS7003;60991;51.278;22.550;2023-07-16T01:00:18;19.25;18.25;14.25
72854;PMS7003;60991;51.278;22.550;2023-07-16T01:01:48;21.75;18.00;12.50
72854;PMS7003;60991;51.278;22.550;2023-07-16T01:03:18;19.50;18.25;13.50
72854;PMS7003;60991;51.278;22.550;2023-07-16T01:04:48;16.75;14.00;10.00
72854;PMS7003;60991;51.278;22.550;2023-07-16T01:06:25;17.00;15.25;12.00
72854;PMS7003;60991;51.278;22.550;2023-07-16T01:08:04;18.25;16.75;12.75
72854;PMS7003;60991;51.278;22.550;2023-07-16T01:09:40;18.75;18.75;13.00
72854;PMS7003;60991;51.278;22.550;2023-07-16T01:11:12;18.50;17.00;14.25
72854;PMS7003;60991;51.278;22.550;2023-07-16T01:12:43;15.50;15.50;12.50
72854;PMS7003;60991;51.278;22.550;2023-07-16T01:14:16;17.00;17.00;12.50
72854;PMS7003;60991;51.278;22.550;2023-07-16T01:15:47;19.00;17.25;13.00
72854;PMS7003;60991;51.278;22.550;2023-07-16T01:17:18;15.00;14.75;11.00
72854;PMS7003;60991;51.278;22.550;2023-07-16T01:18:48;15.50;15.50;11.00
72854;PMS7003;60991;51.278;22.550;2023-07-16T01:20:19;19.00;18.00;14.75
72854;PMS7003;60991;51.278;22.550;2023-07-16T01:30:39;17.25;17.25;13.75
72854;PMS7003;60991;51.278;22.550;2023-07-16T01:32:13;19.50;17.00;13.00
72854;PMS7003;60991;51.278;22.550;2023-07-16T01:33:45;14.25;14.25;11.25
72854;PMS7003;60991;51.278;22.550;2023-07-16T01:35:16;22.25;18.75;14.25
72854;PMS7003;60991;51.278;22.550;2023-07-16T01:36:47;21.75;19.00;13.50
72854;PMS7003;60991;51.278;22.550;2023-07-16T01:38:19;19.75;19.75;12.75
72854;PMS7003;60991;51.278;22.550;2023-07-16T01:39:49;17.50;17.50;13.25
72854;PMS7003;60991;51.278;22.550;2023-07-16T01:41:20;19.25;18.25;14.75
72854;PMS7003;60991;51.278;22.550;2023-07-16T01:42:50;18.00;17.00;12.00
72854;PMS7003;60991;51.278;22.550;2023-07-16T01:44:20;21.50;19.75;13.25
72854;PMS7003;60991;51.278;22.550;2023-07-16T01:45:50;17.25;16.50;12.25
72854;PMS7003;60991;51.278;22.550;2023-07-16T01:47:30;17.00;16.25;12.50
72854;PMS7003;60991;51.278;22.550;2023-07-16T01:49:06;19.25;17.50;13.00
72854;PMS7003;60991;51.278;22.550;2023-07-16T01:50:36;18.75;16.50;10.50
72854;PMS7003;60991;51.278;22.550;2023-07-16T01:52:07;17.50;15.75;13.00
72854;PMS7003;60991;51.278;22.550;2023-07-16T01:53:37;16.25;14.50;10.75
72854;PMS7003;60991;51.278;22.550;2023-07-16T01:55:08;19.00;16.75;11.75
72854;PMS7003;60991;51.278;22.550;2023-07-16T01:56:38;17.00;16.75;12.50
72854;PMS7003;60991;51.278;22.550;2023-07-16T01:58:08;13.00;12.00;9.00
72854;PMS7003;60991;51.278;22.550;2023-07-16T01:59:38;17.25;16.50;12.50
72854;PMS7003;60991;51.278;22.550;2023-07-16T02:01:09;18.75;16.75;12.00
72854;PMS7003;60991;51.278;22.550;2023-07-16T02:02:39;17.25;16.50;12.00
72854;PMS7003;60991;51.278;22.550;2023-07-16T02:04:09;19.50;18.25;14.25
72854;PMS7003;60991;51.278;22.550;2023-07-16T02:05:39;16.00;16.00;12.00
72854;PMS7003;60991;51.278;22.550;2023-07-16T02:07:09;15.00;15.00;12.25
72854;PMS7003;60991;51.278;22.550;2023-07-16T02:08:40;16.00;16.00;12.25
72854;PMS7003;60991;51.278;22.550;2023-07-16T02:10:10;16.00;16.00;12.25
72854;PMS7003;60991;51.278;22.550;2023-07-16T02:11:40;15.50;15.50;12.75
72854;PMS7003;60991;51.278;22.550;2023-07-16T02:13:10;16.50;15.25;12.00
72854;PMS7003;60991;51.278;22.550;2023-07-16T02:14:41;17.75;15.50;11.25
72854;PMS7003;60991;51.278;22.550;2023-07-16T02:16:11;16.50;16.50;12.50
72854;PMS7003;60991;51.278;22.550;2023-07-16T02:17:41;15.25;12.50;8.75
72854;PMS7003;60991;51.278;22.550;2023-07-16T02:19:11;15.25;15.25;11.25
72854;PMS7003;60991;51.278;22.550;2023-07-16T02:20:42;15.00;14.25;10.75
72854;PMS7003;60991;51.278;22.550;2023-07-16T02:22:13;16.50;15.00;12.25
72854;PMS7003;60991;51.278;22.550;2023-07-16T02:23:43;16.00;16.00;12.50
72854;PMS7003;60991;51.278;22.550;2023-07-16T02:25:13;14.50;14.25;12.00
72854;PMS7003;60991;51.278;22.550;2023-07-16T02:26:44;17.75;15.75;13.00
72854;PMS7003;60991;51.278;22.550;2023-07-16T02:28:14;9.50;9.50;7.50
72854;PMS7003;60991;51.278;22.550;2023-07-16T02:29:44;16.00;14.00;10.75
72854;PMS7003;60991;51.278;22.550;2023-07-16T02:31:14;12.00;12.00;9.00
72854;PMS7003;60991;51.278;22.550;2023-07-16T02:32:45;14.25;12.50;9.00
72854;PMS7003;60991;51.278;22.550;2023-07-16T02:34:15;15.00;15.00;10.50
72854;PMS7003;60991;51.278;22.550;2023-07-16T02:35:48;12.25;12.00;9.00
72854;PMS7003;60991;51.278;22.550;2023-07-16T02:37:19;15.50;15.50;12.00
72854;PMS7003;60991;51.278;22.550;2023-07-16T02:38:49;13.75;13.75;11.00
72854;PMS7003;60991;51.278;22.550;2023-07-16T02:40:19;16.50;14.50;10.75
72854;PMS7003;60991;51.278;22.550;2023-07-16T02:41:50;11.75;11.75;9.00
72854;PMS7003;60991;51.278;22.550;2023-07-16T02:43:20;14.50;14.50;11.00
72854;PMS7003;60991;51.278;22.550;2023-07-16T02:44:51;16.00;14.75;11.00
72854;PMS7003;60991;51.278;22.550;2023-07-16T02:46:21;14.50;13.00;10.00
72854;PMS7003;60991;51.278;22.550;2023-07-16T02:47:52;14.75;14.75;10.75
72854;PMS7003;60991;51.278;22.550;2023-07-16T02:49:22;13.50;13.00;9.25
72854;PMS7003;60991;51.278;22.550;2023-07-16T02:50:52;14.75;12.50;9.50
72854;PMS7003;60991;51.278;22.550;2023-07-16T02:52:22;14.25;14.25;11.00
72854;PMS7003;60991;51.278;22.550;2023-07-16T02:53:53;16.25;15.00;11.75
72854;PMS7003;60991;51.278;22.550;2023-07-16T02:55:23;13.00;12.50;9.00
72854;PMS7003;60991;51.278;22.550;2023-07-16T02:56:53;13.75;13.00;9.25
72854;PMS7003;60991;51.278;22.550;2023-07-16T02:58:24;16.50;14.25;10.00
72854;PMS7003;60991;51.278;22.550;2023-07-16T02:59:54;12.75;12.75;11.00
72854;PMS7003;60991;51.278;22.550;2023-07-16T03:01:24;15.75;14.25;11.25
72854;PMS7003;60991;51.278;22.550;2023-07-16T03:02:54;15.25;14.00;10.00
72854;PMS7003;60991;51.278;22.550;2023-07-16T03:04:24;14.00;14.00;9.75
72854;PMS7003;60991;51.278;22.550;2023-07-16T03:05:55;12.25;12.00;9.00
72854;PMS7003;60991;51.278;22.550;2023-07-16T03:07:25;12.25;12.25;10.00
72854;PMS7003;60991;51.278;22.550;2023-07-16T03:08:55;14.75;14.75;9.75
72854;PMS7003;60991;51.278;22.550;2023-07-16T03:10:25;13.00;13.00;9.75
72854;PMS7003;60991;51.278;22.550;2023-07-16T03:11:55;15.75;15.75;11.00
72854;PMS7003;60991;51.278;22.550;2023-07-16T03:13:26;12.00;11.50;8.00
72854;PMS7003;60991;51.278;22.550;2023-07-16T03:14:56;11.25;11.25;9.75
72854;PMS7003;60991;51.278;22.550;2023-07-16T03:16:26;13.00;13.00;9.75
72854;PMS7003;60991;51.278;22.550;2023-07-16T03:17:56;13.25;12.25;10.00
72854;PMS7003;60991;51.278;22.550;2023-07-16T03:19:27;15.75;14.25;11.50
72854;PMS7003;60991;51.278;22.550;2023-07-16T03:20:57;12.00;12.00;9.00
72854;PMS7003;60991;51.278;22.550;2023-07-16T03:22:28;11.50;9.75;8.00
72854;PMS7003;60991;51.278;22.550;2023-07-16T03:23:58;13.25;13.25;9.75
72854;PMS7003;60991;51.278;22.550;2023-07-16T03:25:28;13.00;13.00;10.00
72854;PMS7003;60991;51.278;22.550;2023-07-16T03:26:58;14.75;13.75;11.00
72854;PMS7003;60991;51.278;22.550;2023-07-16T03:28:29;11.75;11.75;9.50
72854;PMS7003;60991;51.278;22.550;2023-07-16T03:29:59;10.00;10.00;8.50
72854;PMS7003;60991;51.278;22.550;2023-07-16T03:31:29;10.25;10.25;7.25
72854;PMS7003;60991;51.278;22.550;2023-07-16T03:32:59;11.75;10.50;8.50
72854;PMS7003;60991;51.278;22.550;2023-07-16T03:34:30;11.75;11.75;9.75
72854;PMS7003;60991;51.278;22.550;2023-07-16T03:36:00;17.00;17.00;11.00
72854;PMS7003;60991;51.278;22.550;2023-07-16T03:37:30;11.25;11.00;8.50
72854;PMS7003;60991;51.278;22.550;2023-07-16T03:39:00;13.75;12.00;9.75
72854;PMS7003;60991;51.278;22.550;2023-07-16T03:40:30;12.75;12.75;9.75
72854;PMS7003;60991;51.278;22.550;2023-07-16T03:42:01;14.25;12.25;9.00
72854;PMS7003;60991;51.278;22.550;2023-07-16T03:43:31;14.00;14.00;11.00
72854;PMS7003;60991;51.278;22.550;2023-07-16T03:45:01;13.25;12.50;8.50
72854;PMS7003;60991;51.278;22.550;2023-07-16T03:46:31;12.75;12.75;10.25
72854;PMS7003;60991;51.278;22.550;2023-07-16T03:48:02;10.50;10.50;8.50
72854;PMS7003;60991;51.278;22.550;2023-07-16T03:49:32;12.75;12.75;9.25
72854;PMS7003;60991;51.278;22.550;2023-07-16T03:51:02;14.25;13.00;9.50
72854;PMS7003;60991;51.278;22.550;2023-07-16T03:52:32;12.00;11.75;8.50
72854;PMS7003;60991;51.278;22.550;2023-07-16T03:54:03;13.00;11.00;8.75
72854;PMS7003;60991;51.278;22.550;2023-07-16T03:55:33;11.00;11.00;9.00
72854;PMS7003;60991;51.278;22.550;2023-07-16T03:57:03;12.25;8.75;6.75
72854;PMS7003;60991;51.278;22.550;2023-07-16T03:58:34;12.00;11.50;8.75
72854;PMS7003;60991;51.278;22.550;2023-07-16T04:00:04;14.50;13.50;9.75
72854;PMS7003;60991;51.278;22.550;2023-07-16T04:01:35;13.25;13.25;10.50
72854;PMS7003;60991;51.278;22.550;2023-07-16T04:03:05;15.50;14.00;10.00
72854;PMS7003;60991;51.278;22.550;2023-07-16T04:04:36;13.00;13.00;11.00
72854;PMS7003;60991;51.278;22.550;2023-07-16T04:06:07;15.75;15.75;11.00
72854;PMS7003;60991;51.278;22.550;2023-07-16T04:07:38;13.25;12.25;10.00
72854;PMS7003;60991;51.278;22.550;2023-07-16T04:09:08;12.50;12.50;11.00
72854;PMS7003;60991;51.278;22.550;2023-07-16T04:10:39;11.00;10.00;8.50
72854;PMS7003;60991;51.278;22.550;2023-07-16T04:12:09;16.50;14.25;10.25
72854;PMS7003;60991;51.278;22.550;2023-07-16T04:13:39;13.50;12.00;9.00
72854;PMS7003;60991;51.278;22.550;2023-07-16T04:15:09;12.50;12.50;9.75
72854;PMS7003;60991;51.278;22.550;2023-07-16T04:16:40;14.00;12.00;9.00
72854;PMS7003;60991;51.278;22.550;2023-07-16T04:18:10;11.50;11.50;8.75
72854;PMS7003;60991;51.278;22.550;2023-07-16T04:19:40;14.50;14.50;10.75
72854;PMS7003;60991;51.278;22.550;2023-07-16T04:21:10;17.00;17.00;11.25
72854;PMS7003;60991;51.278;22.550;2023-07-16T04:22:41;14.00;14.00;10.50
72854;PMS7003;60991;51.278;22.550;2023-07-16T04:24:11;14.00;11.75;9.50
72854;PMS7003;60991;51.278;22.550;2023-07-16T04:25:41;13.00;13.00;10.75
72854;PMS7003;60991;51.278;22.550;2023-07-16T04:27:11;13.00;12.00;9.00
72854;PMS7003;60991;51.278;22.550;2023-07-16T04:28:42;15.25;14.50;10.75
72854;PMS7003;60991;51.278;22.550;2023-07-16T04:30:12;14.75;13.25;9.00
72854;PMS7003;60991;51.278;22.550;2023-07-16T04:31:42;13.75;13.75;11.00
72854;PMS7003;60991;51.278;22.550;2023-07-16T04:33:12;14.00;13.25;9.50
72854;PMS7003;60991;51.278;22.550;2023-07-16T04:34:42;13.00;12.75;10.00
72854;PMS7003;60991;51.278;22.550;2023-07-16T04:36:13;15.75;15.25;11.00
72854;PMS7003;60991;51.278;22.550;2023-07-16T04:37:43;14.25;13.75;10.50
72854;PMS7003;60991;51.278;22.550;2023-07-16T04:39:13;19.75;17.00;11.75
72854;PMS7003;60991;51.278;22.550;2023-07-16T04:40:43;15.00;15.00;10.75
72854;PMS7003;60991;51.278;22.550;2023-07-16T04:42:13;13.50;13.50;9.50
72854;PMS7003;60991;51.278;22.550;2023-07-16T04:43:44;10.00;10.00;7.00
72854;PMS7003;60991;51.278;22.550;2023-07-16T04:45:14;19.25;14.25;11.25
72854;PMS7003;60991;51.278;22.550;2023-07-16T04:46:44;12.75;10.75;8.00
72854;PMS7003;60991;51.278;22.550;2023-07-16T04:48:14;15.75;15.75;10.50
72854;PMS7003;60991;51.278;22.550;2023-07-16T04:49:44;18.75;13.75;11.00
72854;PMS7003;60991;51.278;22.550;2023-07-16T04:51:15;14.75;14.00;10.50
72854;PMS7003;60991;51.278;22.550;2023-07-16T04:52:45;13.75;13.25;9.50
72854;PMS7003;60991;51.278;22.550;2023-07-16T04:54:15;14.00;14.00;11.00
72854;PMS7003;60991;51.278;22.550;2023-07-16T04:55:45;12.75;12.75;10.00
72854;PMS7003;60991;51.278;22.550;2023-07-16T04:57:15;15.50;15.50;12.00
72854;PMS7003;60991;51.278;22.550;2023-07-16T04:58:46;15.50;15.00;10.50
72854;PMS7003;60991;51.278;22.550;2023-07-16T05:00:16;16.00;14.50;10.00
72854;PMS7003;60991;51.278;22.550;2023-07-16T05:01:46;11.75;11.75;8.00
72854;PMS7003;60991;51.278;22.550;2023-07-16T05:03:16;11.75;10.50;8.50
72854;PMS7003;60991;51.278;22.550;2023-07-16T05:04:47;13.50;13.50;10.00
72854;PMS7003;60991;51.278;22.550;2023-07-16T05:06:17;15.50;14.25;9.75
72854;PMS7003;60991;51.278;22.550;2023-07-16T05:07:47;15.25;15.00;11.75
72854;PMS7003;60991;51.278;22.550;2023-07-16T05:09:17;11.25;11.25;9.25
72854;PMS7003;60991;51.278;22.550;2023-07-16T05:10:47;14.00;13.00;9.75
72854;PMS7003;60991;51.278;22.550;2023-07-16T05:12:18;13.00;12.75;8.25
72854;PMS7003;60991;51.278;22.550;2023-07-16T05:13:48;16.25;14.50;11.25
72854;PMS7003;60991;51.278;22.550;2023-07-16T05:15:18;15.00;14.50;11.25
72854;PMS7003;60991;51.278;22.550;2023-07-16T05:16:48;14.00;13.00;10.50
72854;PMS7003;60991;51.278;22.550;2023-07-16T05:18:19;11.25;10.75;8.00
72854;PMS7003;60991;51.278;22.550;2023-07-16T05:19:49;11.75;11.75;9.00
72854;PMS7003;60991;51.278;22.550;2023-07-16T05:21:19;16.50;15.00;11.00
72854;PMS7003;60991;51.278;22.550;2023-07-16T05:22:50;12.50;12.50;9.25
72854;PMS7003;60991;51.278;22.550;2023-07-16T05:24:21;12.50;12.00;8.00
72854;PMS7003;60991;51.278;22.550;2023-07-16T05:25:51;14.00;12.25;9.75
72854;PMS7003;60991;51.278;22.550;2023-07-16T05:27:21;12.50;12.50;10.00
72854;PMS7003;60991;51.278;22.550;2023-07-16T05:28:51;9.25;9.25;8.00
72854;PMS7003;60991;51.278;22.550;2023-07-16T05:30:21;14.00;11.75;9.25
72854;PMS7003;60991;51.278;22.550;2023-07-16T05:31:52;10.50;10.50;9.00
72854;PMS7003;60991;51.278;22.550;2023-07-16T05:33:22;13.75;12.00;9.25
72854;PMS7003;60991;51.278;22.550;2023-07-16T05:34:52;12.50;12.50;9.00
72854;PMS7003;60991;51.278;22.550;2023-07-16T05:36:22;13.00;13.00;9.75
72854;PMS7003;60991;51.278;22.550;2023-07-16T05:37:52;12.75;11.00;7.00
72854;PMS7003;60991;51.278;22.550;2023-07-16T05:39:23;12.25;11.25;8.00
72854;PMS7003;60991;51.278;22.550;2023-07-16T05:40:53;11.00;10.75;9.75
72854;PMS7003;60991;51.278;22.550;2023-07-16T05:42:23;13.50;13.00;10.00
72854;PMS7003;60991;51.278;22.550;2023-07-16T05:43:53;16.00;14.00;9.25
72854;PMS7003;60991;51.278;22.550;2023-07-16T05:45:24;11.25;10.00;9.00
72854;PMS7003;60991;51.278;22.550;2023-07-16T05:46:54;14.25;11.00;9.00
72854;PMS7003;60991;51.278;22.550;2023-07-16T05:48:24;12.50;10.50;8.25
72854;PMS7003;60991;51.278;22.550;2023-07-16T05:49:55;17.25;15.25;12.25
72854;PMS7003;60991;51.278;22.550;2023-07-16T05:51:25;11.75;11.75;9.00
72854;PMS7003;60991;51.278;22.550;2023-07-16T05:52:55;15.50;15.50;11.00
72854;PMS7003;60991;51.278;22.550;2023-07-16T05:54:25;13.50;12.00;9.00
72854;PMS7003;60991;51.278;22.550;2023-07-16T05:55:58;13.75;13.75;10.00
72854;PMS7003;60991;51.278;22.550;2023-07-16T05:57:29;14.00;13.00;8.25
72854;PMS7003;60991;51.278;22.550;2023-07-16T05:58:59;13.00;12.00;10.00
72854;PMS7003;60991;51.278;22.550;2023-07-16T06:00:29;13.00;10.75;9.00
72854;PMS7003;60991;51.278;22.550;2023-07-16T06:01:59;9.75;9.75;8.00
72854;PMS7003;60991;51.278;22.550;2023-07-16T06:03:30;13.00;13.00;8.00
72854;PMS7003;60991;51.278;22.550;2023-07-16T06:05:00;13.00;11.00;9.00
72854;PMS7003;60991;51.278;22.550;2023-07-16T06:06:31;11.50;10.75;9.75
72854;PMS7003;60991;51.278;22.550;2023-07-16T06:08:01;11.25;9.50;7.75
72854;PMS7003;60991;51.278;22.550;2023-07-16T06:09:31;11.75;11.00;8.75
72854;PMS7003;60991;51.278;22.550;2023-07-16T06:11:01;12.25;12.25;9.25
72854;PMS7003;60991;51.278;22.550;2023-07-16T06:12:32;11.25;10.00;8.25
72854;PMS7003;60991;51.278;22.550;2023-07-16T06:14:02;11.00;11.00;9.00
72854;PMS7003;60991;51.278;22.550;2023-07-16T06:15:32;11.50;10.50;8.50
72854;PMS7003;60991;51.278;22.550;2023-07-16T06:17:02;11.50;11.50;8.25
72854;PMS7003;60991;51.278;22.550;2023-07-16T06:18:33;11.50;11.50;8.00
72854;PMS7003;60991;51.278;22.550;2023-07-16T06:20:03;14.25;11.50;8.75
72854;PMS7003;60991;51.278;22.550;2023-07-16T06:21:34;11.25;11.25;9.00
72854;PMS7003;60991;51.278;22.550;2023-07-16T06:23:04;11.75;11.00;8.00
72854;PMS7003;60991;51.278;22.550;2023-07-16T06:24:34;14.25;13.25;10.00
72854;PMS7003;60991;51.278;22.550;2023-07-16T06:26:05;14.25;12.75;10.75
72854;PMS7003;60991;51.278;22.550;2023-07-16T06:27:35;12.25;11.25;9.00
72854;PMS7003;60991;51.278;22.550;2023-07-16T06:29:08;13.75;11.75;9.75
72854;PMS7003;60991;51.278;22.550;2023-07-16T06:30:39;11.25;11.00;7.75
72854;PMS7003;60991;51.278;22.550;2023-07-16T06:32:09;9.75;9.75;7.75
72854;PMS7003;60991;51.278;22.550;2023-07-16T06:33:39;12.25;12.25;8.75
72854;PMS7003;60991;51.278;22.550;2023-07-16T06:35:09;12.75;12.75;10.00
72854;PMS7003;60991;51.278;22.550;2023-07-16T06:36:40;11.25;10.25;9.25
72854;PMS7003;60991;51.278;22.550;2023-07-16T06:38:10;12.25;11.25;8.50
72854;PMS7003;60991;51.278;22.550;2023-07-16T06:39:40;10.00;10.00;8.25
72854;PMS7003;60991;51.278;22.550;2023-07-16T06:41:10;10.75;10.75;6.50
72854;PMS7003;60991;51.278;22.550;2023-07-16T06:42:41;11.25;11.25;8.25
72854;PMS7003;60991;51.278;22.550;2023-07-16T06:44:11;11.75;10.25;8.25
72854;PMS7003;60991;51.278;22.550;2023-07-16T06:45:41;11.75;10.00;7.75
72854;PMS7003;60991;51.278;22.550;2023-07-16T06:47:11;12.00;10.00;9.00
72854;PMS7003;60991;51.278;22.550;2023-07-16T06:48:41;13.50;12.50;10.25
72854;PMS7003;60991;51.278;22.550;2023-07-16T06:50:12;10.50;10.50;8.25
72854;PMS7003;60991;51.278;22.550;2023-07-16T06:51:42;12.00;12.00;9.50
72854;PMS7003;60991;51.278;22.550;2023-07-16T06:53:12;13.00;12.00;9.00
72854;PMS7003;60991;51.278;22.550;2023-07-16T07:31:08;12.50;11.50;8.25
72854;PMS7003;60991;51.278;22.550;2023-07-16T07:32:38;11.50;11.00;8.25
72854;PMS7003;60991;51.278;22.550;2023-07-16T07:34:08;10.50;10.50;8.25
72854;PMS7003;60991;51.278;22.550;2023-07-16T07:35:39;12.25;12.25;8.50
72854;PMS7003;60991;51.278;22.550;2023-07-16T07:37:09;11.00;11.00;8.75
72854;PMS7003;60991;51.278;22.550;2023-07-16T07:38:39;10.50;10.50;9.25
72854;PMS7003;60991;51.278;22.550;2023-07-16T07:40:09;11.00;9.00;6.00
72854;PMS7003;60991;51.278;22.550;2023-07-16T07:41:40;13.50;11.75;9.50
72854;PMS7003;60991;51.278;22.550;2023-07-16T07:43:10;11.00;11.00;9.00
72854;PMS7003;60991;51.278;22.550;2023-07-16T07:44:40;13.50;12.50;9.75
72854;PMS7003;60991;51.278;22.550;2023-07-16T07:46:11;12.50;11.50;9.75
72854;PMS7003;60991;51.278;22.550;2023-07-16T07:47:41;13.00;13.00;10.00
72854;PMS7003;60991;51.278;22.550;2023-07-16T07:49:11;12.75;12.75;10.50
72854;PMS7003;60991;51.278;22.550;2023-07-16T07:50:42;9.75;9.75;7.25
72854;PMS7003;60991;51.278;22.550;2023-07-16T07:52:12;10.75;9.25;7.25
72854;PMS7003;60991;51.278;22.550;2023-07-16T07:53:42;11.25;10.25;8.50
72854;PMS7003;60991;51.278;22.550;2023-07-16T07:55:12;12.50;12.50;8.00
72854;PMS7003;60991;51.278;22.550;2023-07-16T07:56:45;12.50;11.00;7.25
72854;PMS7003;60991;51.278;22.550;2023-07-16T07:58:15;12.00;10.50;8.50
72854;PMS7003;60991;51.278;22.550;2023-07-16T07:59:45;11.00;11.00;7.75
72854;PMS7003;60991;51.278;22.550;2023-07-16T08:01:16;12.00;12.00;9.00
72854;PMS7003;60991;51.278;22.550;2023-07-16T08:02:46;10.75;9.00;7.50
72854;PMS7003;60991;51.278;22.550;2023-07-16T08:04:16;10.00;9.25;7.50
72854;PMS7003;60991;51.278;22.550;2023-07-16T08:05:49;11.00;11.00;9.00
72854;PMS7003;60991;51.278;22.550;2023-07-16T08:07:20;14.00;14.00;10.00
72854;PMS7003;60991;51.278;22.550;2023-07-16T08:08:50;10.25;10.25;8.25
72854;PMS7003;60991;51.278;22.550;2023-07-16T08:10:21;11.25;10.25;8.50
72854;PMS7003;60991;51.278;22.550;2023-07-16T08:11:52;8.75;8.25;6.00
72854;PMS7003;60991;51.278;22.550;2023-07-16T08:13:22;12.00;12.00;9.00
72854;PMS7003;60991;51.278;22.550;2023-07-16T08:14:52;14.25;14.25;10.00
72854;PMS7003;60991;51.278;22.550;2023-07-16T08:16:22;10.50;10.50;8.75
72854;PMS7003;60991;51.278;22.550;2023-07-16T08:17:53;10.50;10.50;8.50
72854;PMS7003;60991;51.278;22.550;2023-07-16T08:19:23;11.50;10.50;8.50
72854;PMS7003;60991;51.278;22.550;2023-07-16T08:20:53;10.50;10.50;8.25
72854;PMS7003;60991;51.278;22.550;2023-07-16T08:22:23;12.00;11.75;8.50
72854;PMS7003;60991;51.278;22.550;2023-07-16T08:23:54;13.00;13.00;10.00
72854;PMS7003;60991;51.278;22.550;2023-07-16T08:25:24;13.25;12.25;9.75
72854;PMS7003;60991;51.278;22.550;2023-07-16T08:26:54;9.75;9.75;7.00
72854;PMS7003;60991;51.278;22.550;2023-07-16T08:28:24;8.00;8.00;7.00
72854;PMS7003;60991;51.278;22.550;2023-07-16T08:29:54;13.75;12.25;9.00
72854;PMS7003;60991;51.278;22.550;2023-07-16T08:31:25;11.00;11.00;7.75
72854;PMS7003;60991;51.278;22.550;2023-07-16T08:32:55;13.00;11.50;9.75
72854;PMS7003;60991;51.278;22.550;2023-07-16T08:34:25;9.25;9.25;7.50
72854;PMS7003;60991;51.278;22.550;2023-07-16T08:35:55;9.00;7.75;5.25
72854;PMS7003;60991;51.278;22.550;2023-07-16T08:37:25;10.75;10.75;8.50
72854;PMS7003;60991;51.278;22.550;2023-07-16T08:38:56;11.50;11.50;9.00
72854;PMS7003;60991;51.278;22.550;2023-07-16T08:40:26;9.25;9.25;7.25
72854;PMS7003;60991;51.278;22.550;2023-07-16T08:41:56;11.00;11.00;8.25
72854;PMS7003;60991;51.278;22.550;2023-07-16T08:43:27;9.50;9.50;7.50
72854;PMS7003;60991;51.278;22.550;2023-07-16T08:44:58;9.25;9.25;7.25
72854;PMS7003;60991;51.278;22.550;2023-07-16T08:46:30;12.75;12.25;9.25
72854;PMS7003;60991;51.278;22.550;2023-07-16T08:48:00;13.00;12.00;10.00
72854;PMS7003;60991;51.278;22.550;2023-07-16T08:49:31;15.25;12.50;10.00
72854;PMS7003;60991;51.278;22.550;2023-07-16T08:51:03;12.25;11.25;9.75
72854;PMS7003;60991;51.278;22.550;2023-07-16T08:52:35;9.25;9.25;7.00
72854;PMS7003;60991;51.278;22.550;2023-07-16T08:54:06;11.75;11.75;8.75
72854;PMS7003;60991;51.278;22.550;2023-07-16T08:55:36;10.75;10.75;8.25
72854;PMS7003;60991;51.278;22.550;2023-07-16T08:57:07;11.50;10.00;8.00
72854;PMS7003;60991;51.278;22.550;2023-07-16T08:58:38;12.00;11.50;9.00
72854;PMS7003;60991;51.278;22.550;2023-07-16T09:00:12;11.50;10.75;8.00
72854;PMS7003;60991;51.278;22.550;2023-07-16T09:01:47;12.75;12.75;9.25
72854;PMS7003;60991;51.278;22.550;2023-07-16T09:03:17;10.25;10.25;7.25
72854;PMS7003;60991;51.278;22.550;2023-07-16T09:04:48;10.25;10.25;7.25
72854;PMS7003;60991;51.278;22.550;2023-07-16T09:06:18;9.75;8.75;6.25
72854;PMS7003;60991;51.278;22.550;2023-07-16T09:07:49;10.50;10.00;7.75
72854;PMS7003;60991;51.278;22.550;2023-07-16T09:09:21;10.50;10.00;7.75